Time;durP1;ratioP1;P1;durP2;ratioP2;P2;SDS_P1;SDS_P2;PMS_P1;PMS_P2;Temp;Humidity;BMP_temperature;BMP_pressure;BME280_temperature;BME280_humidity;BME280_pressure;Samples;Min_cycle;Max_cycle;Signal;HPM_P1;HPM_P2
2022/02/20 00:00:48;;;;;;;38.00;27.15;;;;;;;;;;5068501;28;20056;-47
2022/02/20 00:03:14;;;;;;;33.42;26.55;;;;;;;;;;5068119;28;20111;-50
2022/02/20 00:05:40;;;;;;;31.63;25.40;;;;;;;;;;5063739;28;20080;-49
2022/02/20 00:08:06;;;;;;;32.47;25.60;;;;;;;;;;5052344;28;20048;-51
2022/02/20 00:10:32;;;;;;;34.15;25.85;;;;;;;;;;5068145;28;20051;-48
2022/02/20 00:12:59;;;;;;;34.72;26.33;;;;;;;;;;5068673;28;20494;-48
2022/02/20 00:15:25;;;;;;;32.30;25.27;;;;;;;;;;5068575;28;20026;-50
2022/02/20 00:17:54;;;;;;;38.42;25.40;;;;;;;;;;5067938;28;20025;-50
2022/02/20 00:20:20;;;;;;;29.45;25.20;;;;;;;;;;5068166;28;20124;-52
2022/02/20 00:22:46;;;;;;;35.50;25.33;;;;;;;;;;5068548;28;20413;-52
2022/02/20 00:25:12;;;;;;;38.55;25.50;;;;;;;;;;5068144;28;20074;-52
2022/02/20 00:27:39;;;;;;;31.05;24.83;;;;;;;;;;5068301;28;20029;-52
2022/02/20 00:30:05;;;;;;;30.20;24.33;;;;;;;;;;5068232;28;20025;-52
2022/02/20 00:32:31;;;;;;;31.42;24.45;;;;;;;;;;5063315;28;20049;-49
2022/02/20 00:34:57;;;;;;;31.40;23.70;;;;;;;;;;5063674;28;20021;-49
2022/02/20 00:37:23;;;;;;;31.70;23.75;;;;;;;;;;5071798;28;20108;-52
2022/02/20 00:39:49;;;;;;;32.25;23.58;;;;;;;;;;5071840;28;20099;-48
2022/02/20 00:42:15;;;;;;;34.35;24.17;;;;;;;;;;5070186;28;20136;-51
2022/02/20 00:44:41;;;;;;;30.30;22.83;;;;;;;;;;5058944;28;20021;-51
2022/02/20 00:47:07;;;;;;;28.00;21.25;;;;;;;;;;5073996;28;20406;-52
2022/02/20 00:49:34;;;;;;;28.77;22.05;;;;;;;;;;5087130;28;20104;-51
2022/02/20 00:52:00;;;;;;;30.33;23.20;;;;;;;;;;5070662;28;20111;-50
2022/02/20 00:54:26;;;;;;;30.20;22.83;;;;;;;;;;5072033;28;20112;-54
2022/02/20 00:56:52;;;;;;;26.67;20.65;;;;;;;;;;5071953;28;20055;-51
2022/02/20 00:59:18;;;;;;;28.08;20.10;;;;;;;;;;5071060;28;20494;-51
2022/02/20 01:01:44;;;;;;;30.20;22.35;;;;;;;;;;5071139;28;20094;-51
2022/02/20 01:04:10;;;;;;;29.20;22.08;;;;;;;;;;5055463;28;20044;-48
2022/02/20 01:06:36;;;;;;;23.40;19.42;;;;;;;;;;5068291;28;20095;-51
2022/02/20 01:09:03;;;;;;;27.95;21.40;;;;;;;;;;5071598;28;20021;-50
2022/02/20 01:11:29;;;;;;;24.05;19.50;;;;;;;;;;5071171;28;20083;-52
2022/02/20 01:13:55;;;;;;;25.95;19.70;;;;;;;;;;5071181;28;20040;-47
2022/02/20 01:16:21;;;;;;;26.52;20.60;;;;;;;;;;5071593;28;20103;-47
2022/02/20 01:18:48;;;;;;;28.52;20.17;;;;;;;;;;5055342;28;20028;-51
2022/02/20 01:21:14;;;;;;;26.70;20.25;;;;;;;;;;5060222;28;20055;-54
2022/02/20 01:23:40;;;;;;;24.92;19.55;;;;;;;;;;5070044;28;20122;-52
2022/02/20 01:26:06;;;;;;;27.80;19.70;;;;;;;;;;5069678;28;20062;-52
2022/02/20 01:28:32;;;;;;;24.92;18.77;;;;;;;;;;5073763;28;20486;-52
2022/02/20 01:30:58;;;;;;;25.20;17.90;;;;;;;;;;5062661;28;20091;-49
2022/02/20 01:33:24;;;;;;;23.23;17.90;;;;;;;;;;5069669;28;20037;-48
2022/02/20 01:35:50;;;;;;;23.35;17.15;;;;;;;;;;5070507;28;20082;-52
2022/02/20 01:38:16;;;;;;;22.63;18.25;;;;;;;;;;5069433;28;20029;-47
2022/02/20 01:40:43;;;;;;;23.63;17.33;;;;;;;;;;5065367;28;20059;-46
2022/02/20 01:43:10;;;;;;;23.80;17.67;;;;;;;;;;5067540;28;20027;-51
2022/02/20 01:45:38;;;;;;;25.13;17.33;;;;;;;;;;5067197;28;20032;-52
2022/02/20 01:48:07;;;;;;;22.33;15.95;;;;;;;;;;5061183;28;20021;-49
2022/02/20 01:50:33;;;;;;;21.50;15.52;;;;;;;;;;5067988;28;20116;-50
2022/02/20 01:52:59;;;;;;;21.60;15.85;;;;;;;;;;5067841;28;20112;-50
2022/02/20 01:55:26;;;;;;;21.55;15.50;;;;;;;;;;5068080;28;20111;-47
2022/02/20 01:57:55;;;;;;;21.52;15.90;;;;;;;;;;5067818;28;20696;-52
2022/02/20 02:00:22;;;;;;;22.38;16.52;;;;;;;;;;5068377;28;20017;-52
2022/02/20 02:02:48;;;;;;;22.77;16.00;;;;;;;;;;5066137;28;20047;-51
2022/02/20 02:05:14;;;;;;;22.55;16.38;;;;;;;;;;5063155;28;20499;-52
2022/02/20 02:07:40;;;;;;;19.15;15.13;;;;;;;;;;5068992;28;20025;-51
2022/02/20 02:10:07;;;;;;;20.15;15.43;;;;;;;;;;5069767;28;20166;-47
2022/02/20 02:12:33;;;;;;;19.00;14.38;;;;;;;;;;5069243;28;20040;-49
2022/02/20 02:15:02;;;;;;;20.10;14.30;;;;;;;;;;5069868;28;20036;-50
2022/02/20 02:17:28;;;;;;;22.38;14.48;;;;;;;;;;5070490;28;20044;-51
2022/02/20 02:19:55;;;;;;;19.30;13.93;;;;;;;;;;5070391;28;20063;-47
2022/02/20 02:22:21;;;;;;;18.10;14.45;;;;;;;;;;5069731;28;20033;-50
2022/02/20 02:24:48;;;;;;;19.60;14.30;;;;;;;;;;5066380;28;20119;-50
2022/02/20 02:27:14;;;;;;;19.40;13.30;;;;;;;;;;5070061;28;20131;-48
2022/02/20 02:29:41;;;;;;;18.63;13.32;;;;;;;;;;5070075;28;20029;-47
2022/02/20 02:32:07;;;;;;;17.88;13.40;;;;;;;;;;5069193;28;20107;-50
2022/02/20 02:34:33;;;;;;;18.67;13.48;;;;;;;;;;5069732;28;20411;-48
2022/02/20 02:36:59;;;;;;;19.40;13.70;;;;;;;;;;5070076;28;20048;-48
2022/02/20 02:39:25;;;;;;;17.13;12.93;;;;;;;;;;5069355;28;20025;-49
2022/02/20 02:41:51;;;;;;;17.55;13.30;;;;;;;;;;5068574;28;20127;-50
2022/02/20 02:44:17;;;;;;;18.00;13.27;;;;;;;;;;5069034;28;20048;-47
2022/02/20 02:46:43;;;;;;;18.48;12.68;;;;;;;;;;5067719;28;20028;-48
2022/02/20 02:49:10;;;;;;;18.70;12.65;;;;;;;;;;5079374;28;20012;-48
2022/02/20 02:51:36;;;;;;;17.95;12.77;;;;;;;;;;5069622;28;20094;-48
2022/02/20 02:54:06;;;;;;;15.95;12.13;;;;;;;;;;5068647;28;20127;-49
2022/02/20 02:56:32;;;;;;;16.70;12.10;;;;;;;;;;5069580;28;20056;-48
2022/02/20 02:58:58;;;;;;;17.38;11.52;;;;;;;;;;5069780;28;20048;-50
2022/02/20 03:01:24;;;;;;;21.15;13.00;;;;;;;;;;5068289;28;20407;-47
2022/02/20 03:03:51;;;;;;;16.77;11.90;;;;;;;;;;5070060;28;20442;-51
2022/02/20 03:06:17;;;;;;;19.83;12.65;;;;;;;;;;5069036;28;20104;-48
2022/02/20 03:08:43;;;;;;;15.43;11.93;;;;;;;;;;5069549;28;20111;-48
2022/02/20 03:11:09;;;;;;;16.35;11.63;;;;;;;;;;5069048;28;20050;-46
2022/02/20 03:13:36;;;;;;;16.70;11.52;;;;;;;;;;5068963;28;20459;-46
2022/02/20 03:16:02;;;;;;;14.13;10.75;;;;;;;;;;5067839;28;20027;-47
2022/02/20 03:18:30;;;;;;;15.68;11.68;;;;;;;;;;5049111;28;20067;-53
2022/02/20 03:21:00;;;;;;;16.15;11.73;;;;;;;;;;5064821;28;20557;-48
2022/02/20 03:23:26;;;;;;;16.40;11.10;;;;;;;;;;5068868;28;20033;-47
2022/02/20 03:25:52;;;;;;;15.23;10.70;;;;;;;;;;5069209;28;20025;-49
2022/02/20 03:28:18;;;;;;;16.13;10.43;;;;;;;;;;5069010;28;20035;-46
2022/02/20 03:30:45;;;;;;;14.32;10.50;;;;;;;;;;5069017;28;20104;-45
2022/02/20 03:33:11;;;;;;;15.98;10.50;;;;;;;;;;5068754;28;20048;-46
2022/02/20 03:35:37;;;;;;;14.52;10.13;;;;;;;;;;5068908;28;20036;-46
2022/02/20 03:38:03;;;;;;;15.80;11.45;;;;;;;;;;5068813;28;20107;-46
2022/02/20 03:40:29;;;;;;;14.98;11.07;;;;;;;;;;5069122;28;20115;-47
2022/02/20 03:42:55;;;;;;;13.77;10.38;;;;;;;;;;5068744;28;20103;-51
2022/02/20 03:45:22;;;;;;;13.48;9.70;;;;;;;;;;5067797;28;20520;-46
2022/02/20 03:47:48;;;;;;;13.15;9.70;;;;;;;;;;5069422;28;20032;-52
2022/02/20 03:50:15;;;;;;;15.00;9.98;;;;;;;;;;5068099;28;20478;-50
2022/02/20 03:52:41;;;;;;;14.15;10.40;;;;;;;;;;5068632;28;20032;-48
2022/02/20 03:55:08;;;;;;;14.07;9.45;;;;;;;;;;5069360;28;20039;-48
2022/02/20 03:57:36;;;;;;;14.50;10.10;;;;;;;;;;5068001;28;20140;-52
2022/02/20 04:00:14;;;;;;;13.63;9.25;;;;;;;;;;5069115;28;20489;-50
2022/02/20 04:02:40;;;;;;;12.93;9.43;;;;;;;;;;5068284;28;20154;-49
2022/02/20 04:05:07;;;;;;;14.93;10.05;;;;;;;;;;5070457;28;20117;-52
2022/02/20 04:07:34;;;;;;;12.15;9.23;;;;;;;;;;5072530;28;20481;-47
2022/02/20 04:10:00;;;;;;;13.75;9.35;;;;;;;;;;5072652;28;20390;-50
2022/02/20 04:12:26;;;;;;;12.20;8.77;;;;;;;;;;5072327;28;20529;-47
2022/02/20 04:14:52;;;;;;;12.00;9.32;;;;;;;;;;5072294;28;20163;-51
2022/02/20 04:17:20;;;;;;;12.45;8.25;;;;;;;;;;5071702;28;20099;-49
2022/02/20 04:19:47;;;;;;;12.65;8.60;;;;;;;;;;5071535;28;20032;-50
2022/02/20 04:22:13;;;;;;;13.27;8.48;;;;;;;;;;5072237;28;20475;-51
2022/02/20 04:24:40;;;;;;;14.07;8.75;;;;;;;;;;5061814;28;20033;-49
2022/02/20 04:27:06;;;;;;;13.77;7.78;;;;;;;;;;5059204;28;20029;-51
2022/02/20 04:29:32;;;;;;;12.27;8.63;;;;;;;;;;5071529;28;20025;-46
2022/02/20 04:31:58;;;;;;;13.05;8.38;;;;;;;;;;5061793;28;20049;-49
2022/02/20 04:34:24;;;;;;;11.52;7.63;;;;;;;;;;5072071;28;20028;-48
2022/02/20 04:36:51;;;;;;;12.00;7.65;;;;;;;;;;5072175;28;20063;-49
2022/02/20 04:39:17;;;;;;;10.82;8.00;;;;;;;;;;5072218;28;20474;-46
2022/02/20 04:41:43;;;;;;;12.05;7.88;;;;;;;;;;5072358;28;20025;-48
2022/02/20 04:44:10;;;;;;;10.35;7.20;;;;;;;;;;5071444;28;20024;-51
2022/02/20 04:46:36;;;;;;;11.55;8.00;;;;;;;;;;5063781;28;20025;-45
2022/02/20 04:49:04;;;;;;;14.85;8.45;;;;;;;;;;5072104;28;20020;-46
2022/02/20 04:51:30;;;;;;;9.63;7.28;;;;;;;;;;5065328;28;20542;-49
2022/02/20 04:53:56;;;;;;;10.70;7.43;;;;;;;;;;5066675;28;20059;-46
2022/02/20 04:56:22;;;;;;;12.30;7.93;;;;;;;;;;5071548;28;20118;-48
2022/02/20 04:58:48;;;;;;;9.32;6.63;;;;;;;;;;5071907;28;20116;-49
2022/02/20 05:01:14;;;;;;;9.98;7.00;;;;;;;;;;5063480;28;20104;-48
2022/02/20 05:03:41;;;;;;;10.95;7.07;;;;;;;;;;5061689;28;20462;-47
2022/02/20 05:06:07;;;;;;;9.77;6.90;;;;;;;;;;5071116;28;20485;-50
2022/02/20 05:08:33;;;;;;;10.65;7.15;;;;;;;;;;5071608;28;20028;-50
2022/02/20 05:11:00;;;;;;;10.38;6.55;;;;;;;;;;5072095;28;20075;-49
2022/02/20 05:13:26;;;;;;;8.95;6.30;;;;;;;;;;5066758;28;20570;-48
2022/02/20 05:15:52;;;;;;;11.15;7.38;;;;;;;;;;5062641;28;20108;-48
2022/02/20 05:18:18;;;;;;;11.35;6.40;;;;;;;;;;5054350;28;20028;-50
2022/02/20 05:20:44;;;;;;;10.98;6.68;;;;;;;;;;5071818;28;20107;-51
2022/02/20 05:23:10;;;;;;;10.63;6.10;;;;;;;;;;5071474;28;20025;-51
2022/02/20 05:25:36;;;;;;;12.10;6.15;;;;;;;;;;5071383;28;20028;-52
2022/02/20 05:28:02;;;;;;;9.60;6.07;;;;;;;;;;5071390;28;20021;-52
2022/02/20 05:30:28;;;;;;;11.27;6.88;;;;;;;;;;5066432;28;20033;-49
2022/02/20 05:32:54;;;;;;;9.75;6.38;;;;;;;;;;5071560;28;20035;-47
2022/02/20 05:35:21;;;;;;;9.80;5.68;;;;;;;;;;5070853;28;20498;-51
2022/02/20 05:37:48;;;;;;;10.55;5.95;;;;;;;;;;5070998;28;20492;-46
2022/02/20 05:40:15;;;;;;;12.32;6.88;;;;;;;;;;5070221;28;20498;-48
2022/02/20 05:42:41;;;;;;;9.20;5.80;;;;;;;;;;5069898;28;20032;-47
2022/02/20 05:45:08;;;;;;;10.27;5.80;;;;;;;;;;5069770;28;20150;-46
2022/02/20 05:47:34;;;;;;;7.45;4.97;;;;;;;;;;5077571;28;20050;-53
2022/02/20 05:50:00;;;;;;;7.45;5.30;;;;;;;;;;5082775;28;20107;-52
2022/02/20 05:52:26;;;;;;;11.85;5.68;;;;;;;;;;5070522;28;20032;-49
2022/02/20 05:54:52;;;;;;;8.70;5.57;;;;;;;;;;5070940;28;20099;-52
2022/02/20 05:57:18;;;;;;;9.63;5.55;;;;;;;;;;5070691;28;20391;-48
2022/02/20 05:59:44;;;;;;;8.60;5.20;;;;;;;;;;5069985;28;20425;-50
2022/02/20 06:02:11;;;;;;;8.35;4.93;;;;;;;;;;5068274;28;20024;-50
2022/02/20 06:04:37;;;;;;;9.80;5.13;;;;;;;;;;5070709;28;20037;-47
2022/02/20 06:07:03;;;;;;;8.38;5.45;;;;;;;;;;5068508;28;20029;-49
2022/02/20 06:09:30;;;;;;;8.70;4.50;;;;;;;;;;5070533;28;20024;-48
2022/02/20 06:11:56;;;;;;;9.00;5.43;;;;;;;;;;5070145;28;20082;-48
2022/02/20 06:14:22;;;;;;;9.38;4.45;;;;;;;;;;5070052;28;20071;-46
2022/02/20 06:16:48;;;;;;;11.02;4.60;;;;;;;;;;5070064;28;20103;-52
2022/02/20 06:19:14;;;;;;;9.48;4.70;;;;;;;;;;5070273;28;20451;-48
2022/02/20 06:21:40;;;;;;;9.57;5.13;;;;;;;;;;5070366;28;20569;-52
2022/02/20 06:24:07;;;;;;;9.85;4.47;;;;;;;;;;5070351;28;20111;-55
2022/02/20 06:26:33;;;;;;;16.17;4.57;;;;;;;;;;5069858;28;20107;-47
2022/02/20 06:28:59;;;;;;;10.13;4.95;;;;;;;;;;5070580;28;20031;-48
2022/02/20 06:31:25;;;;;;;8.85;4.35;;;;;;;;;;5069211;28;20144;-49
2022/02/20 06:33:52;;;;;;;9.10;4.65;;;;;;;;;;5070111;28;20032;-48
2022/02/20 06:36:21;;;;;;;8.82;4.55;;;;;;;;;;5069115;28;20032;-46
2022/02/20 06:38:48;;;;;;;13.25;4.75;;;;;;;;;;5070036;28;20446;-48
2022/02/20 06:41:14;;;;;;;6.47;4.18;;;;;;;;;;5069720;28;20021;-53
2022/02/20 06:43:41;;;;;;;9.00;3.85;;;;;;;;;;5069634;28;20131;-49
2022/02/20 06:46:08;;;;;;;11.35;4.15;;;;;;;;;;5054231;28;20492;-48
2022/02/20 06:48:34;;;;;;;9.68;4.20;;;;;;;;;;5076287;28;20098;-48
2022/02/20 06:51:00;;;;;;;9.80;4.78;;;;;;;;;;5069730;28;20028;-49
2022/02/20 06:53:26;;;;;;;8.10;3.83;;;;;;;;;;5069143;28;20048;-46
2022/02/20 06:55:53;;;;;;;12.68;4.15;;;;;;;;;;5068623;28;20535;-51
2022/02/20 06:58:19;;;;;;;11.10;4.15;;;;;;;;;;5069633;28;20025;-46
2022/02/20 07:00:45;;;;;;;7.57;4.00;;;;;;;;;;5053843;28;20017;-50
2022/02/20 07:03:11;;;;;;;5.78;3.20;;;;;;;;;;5063452;28;20031;-48
2022/02/20 07:05:37;;;;;;;9.95;4.40;;;;;;;;;;5069192;28;20024;-47
2022/02/20 07:08:03;;;;;;;8.07;3.55;;;;;;;;;;5069735;28;20028;-52
2022/02/20 07:10:30;;;;;;;9.52;4.28;;;;;;;;;;5069245;28;20128;-50
2022/02/20 07:12:56;;;;;;;7.88;3.42;;;;;;;;;;5068912;28;20066;-47
2022/02/20 07:15:24;;;;;;;8.38;3.70;;;;;;;;;;5069351;28;20111;-49
2022/02/20 07:17:51;;;;;;;7.10;3.42;;;;;;;;;;5068765;28;20054;-47
2022/02/20 07:20:17;;;;;;;7.22;3.45;;;;;;;;;;5069947;28;20111;-52
2022/02/20 07:22:43;;;;;;;7.93;3.25;;;;;;;;;;5069525;28;20186;-51
2022/02/20 07:25:09;;;;;;;7.53;3.25;;;;;;;;;;5069123;28;20029;-53
2022/02/20 07:27:39;;;;;;;8.85;3.40;;;;;;;;;;5069083;28;20150;-47
2022/02/20 07:30:05;;;;;;;;;;;;;;;;;;5068908;28;20399;-47
2022/02/20 07:32:31;;;;;;;8.48;3.70;;;;;;;;;;5069555;28;19962;-49
2022/02/20 07:34:57;;;;;;;8.40;3.75;;;;;;;;;;5069041;28;20500;-49
2022/02/20 07:37:24;;;;;;;10.73;3.60;;;;;;;;;;5069042;28;20079;-51
2022/02/20 07:39:50;;;;;;;7.03;3.33;;;;;;;;;;5068002;28;20073;-52
2022/02/20 07:42:16;;;;;;;6.35;3.28;;;;;;;;;;5069131;28;20032;-48
2022/02/20 07:44:42;;;;;;;7.32;3.53;;;;;;;;;;5065516;28;20496;-47
2022/02/20 07:47:09;;;;;;;7.38;3.50;;;;;;;;;;5068409;28;20024;-49
2022/02/20 07:49:34;;;;;;;6.95;3.28;;;;;;;;;;5075461;28;20419;-53
2022/02/20 07:52:00;;;;;;;8.40;3.42;;;;;;;;;;5068692;28;20028;-47
2022/02/20 07:54:26;;;;;;;7.60;2.55;;;;;;;;;;5068131;28;20067;-49
2022/02/20 07:56:53;;;;;;;7.72;3.20;;;;;;;;;;5068861;28;20414;-49
2022/02/20 07:59:19;;;;;;;6.40;2.75;;;;;;;;;;5066338;28;20043;-48
2022/02/20 08:01:47;;;;;;;6.82;3.28;;;;;;;;;;5068807;28;20024;-50
2022/02/20 08:04:14;;;;;;;6.22;2.83;;;;;;;;;;5067481;28;20036;-51
2022/02/20 08:06:40;;;;;;;6.13;2.97;;;;;;;;;;5064352;28;20795;-50
2022/02/20 08:09:06;;;;;;;5.97;2.92;;;;;;;;;;5068606;28;20097;-49
2022/02/20 08:11:32;;;;;;;6.65;2.85;;;;;;;;;;5068986;28;20021;-53
2022/02/20 08:13:59;;;;;;;11.40;3.78;;;;;;;;;;5073569;28;20039;-50
2022/02/20 08:16:26;;;;;;;6.68;3.28;;;;;;;;;;5077279;28;20028;-47
2022/02/20 08:18:52;;;;;;;5.45;2.58;;;;;;;;;;5075782;28;20066;-48
2022/02/20 08:21:18;;;;;;;7.63;3.10;;;;;;;;;;5076645;28;20020;-48
2022/02/20 08:23:45;;;;;;;5.68;2.65;;;;;;;;;;5078607;28;20051;-49
2022/02/20 08:26:11;;;;;;;4.75;2.50;;;;;;;;;;5074202;28;20036;-48
2022/02/20 08:28:37;;;;;;;6.15;2.90;;;;;;;;;;5076364;28;20033;-49
2022/02/20 08:31:03;;;;;;;8.15;3.05;;;;;;;;;;5068091;28;20135;-47
2022/02/20 08:33:29;;;;;;;6.82;2.70;;;;;;;;;;5063532;28;20143;-47
2022/02/20 08:35:55;;;;;;;8.60;3.05;;;;;;;;;;5076356;28;20576;-53
2022/02/20 08:38:21;;;;;;;6.63;3.20;;;;;;;;;;5083172;28;20469;-48
2022/02/20 08:40:52;;;;;;;5.25;2.63;;;;;;;;;;5080168;28;20025;-49
2022/02/20 08:43:20;;;;;;;8.32;2.92;;;;;;;;;;5063483;28;20037;-51
2022/02/20 08:45:48;;;;;;;6.60;2.55;;;;;;;;;;5055466;28;20087;-50
2022/02/20 08:48:14;;;;;;;7.82;2.65;;;;;;;;;;5072569;28;20024;-50
2022/02/20 08:50:41;;;;;;;8.68;3.75;;;;;;;;;;5074795;28;20104;-50
2022/02/20 08:53:07;;;;;;;11.77;2.80;;;;;;;;;;5080546;28;20089;-49
2022/02/20 08:55:33;;;;;;;10.35;2.88;;;;;;;;;;5071167;28;20024;-49
2022/02/20 08:57:59;;;;;;;11.18;6.15;;;;;;;;;;5070429;28;20025;-51
2022/02/20 09:00:26;;;;;;;29.90;16.58;;;;;;;;;;5071447;28;20036;-48
2022/02/20 09:02:52;;;;;;;35.90;24.75;;;;;;;;;;5070882;28;20025;-49
2022/02/20 09:05:18;;;;;;;41.75;29.70;;;;;;;;;;5071567;28;20040;-49
2022/02/20 09:07:44;;;;;;;45.90;29.35;;;;;;;;;;5071371;28;20044;-51
2022/02/20 09:10:11;;;;;;;55.63;35.25;;;;;;;;;;5071404;28;20590;-54
2022/02/20 09:12:38;;;;;;;71.18;40.25;;;;;;;;;;5071170;28;20036;-54
2022/02/20 09:15:05;;;;;;;83.22;45.03;;;;;;;;;;5071849;28;20028;-50
2022/02/20 09:17:32;;;;;;;80.07;46.13;;;;;;;;;;5071400;28;20062;-48
2022/02/20 09:19:58;;;;;;;78.60;47.05;;;;;;;;;;5071440;28;20450;-49
2022/02/20 09:22:26;;;;;;;77.57;45.63;;;;;;;;;;5071014;28;20499;-54
2022/02/20 09:24:52;;;;;;;71.50;44.38;;;;;;;;;;5071318;28;20116;-52
2022/02/20 09:27:18;;;;;;;81.38;45.22;;;;;;;;;;5071062;28;20111;-49
2022/02/20 09:29:44;;;;;;;80.00;42.83;;;;;;;;;;5063771;28;20033;-50
2022/02/20 09:32:10;;;;;;;79.53;43.28;;;;;;;;;;5069485;28;20182;-48
2022/02/20 09:34:36;;;;;;;66.25;44.72;;;;;;;;;;5070924;28;20521;-49
2022/02/20 09:37:03;;;;;;;64.97;42.92;;;;;;;;;;5073887;28;20031;-48
2022/02/20 09:39:29;;;;;;;73.40;41.92;;;;;;;;;;5072681;28;20032;-51
2022/02/20 09:41:57;;;;;;;69.10;42.08;;;;;;;;;;5086186;28;20055;-49
2022/02/20 09:44:23;;;;;;;63.42;39.78;;;;;;;;;;5071526;28;20039;-49
2022/02/20 09:46:49;;;;;;;61.03;39.17;;;;;;;;;;5077862;28;20095;-53
2022/02/20 09:49:15;;;;;;;65.88;38.30;;;;;;;;;;5076055;28;20021;-51
2022/02/20 09:51:41;;;;;;;57.85;34.72;;;;;;;;;;5080362;28;20070;-49
2022/02/20 09:54:07;;;;;;;55.75;33.67;;;;;;;;;;5080709;28;20039;-47
2022/02/20 09:56:33;;;;;;;60.28;34.67;;;;;;;;;;5075659;28;20028;-50
2022/02/20 09:58:59;;;;;;;56.92;34.97;;;;;;;;;;5078016;28;20076;-51
2022/02/20 10:01:25;;;;;;;58.03;33.45;;;;;;;;;;5079194;28;20085;-50
2022/02/20 10:03:51;;;;;;;59.70;34.33;;;;;;;;;;5070840;28;20688;-49
2022/02/20 10:06:19;;;;;;;55.92;31.23;;;;;;;;;;5069065;28;20029;-46
2022/02/20 10:08:46;;;;;;;54.25;32.22;;;;;;;;;;5069411;28;20029;-52
2022/02/20 10:11:24;;;;;;;45.03;30.15;;;;;;;;;;5067593;28;20119;-51
2022/02/20 10:13:51;;;;;;;55.03;31.98;;;;;;;;;;5058820;28;20040;-51
2022/02/20 10:16:18;;;;;;;46.45;29.88;;;;;;;;;;5068832;28;20040;-51
2022/02/20 10:18:46;;;;;;;49.42;29.58;;;;;;;;;;5068803;28;20025;-52
2022/02/20 10:21:16;;;;;;;45.05;29.10;;;;;;;;;;5070498;28;20028;-51
2022/02/20 10:23:43;;;;;;;50.35;28.08;;;;;;;;;;5070201;28;20029;-49
2022/02/20 10:26:27;;;;;;;55.05;28.20;;;;;;;;;;5065614;28;20027;-46
2022/02/20 10:29:09;;;;;;;45.28;26.88;;;;;;;;;;5065107;28;20111;-54
2022/02/20 10:31:40;;;;;;;42.15;26.25;;;;;;;;;;5060458;28;20094;-50
2022/02/20 10:34:07;;;;;;;45.78;28.20;;;;;;;;;;5062967;28;20048;-51
2022/02/20 10:36:56;;;;;;;42.28;26.88;;;;;;;;;;5061028;28;20050;-47
2022/02/20 10:39:24;;;;;;;55.00;28.40;;;;;;;;;;5047181;28;20089;-51
2022/02/20 10:41:51;;;;;;;41.65;25.15;;;;;;;;;;5069252;28;20029;-51
2022/02/20 10:44:17;;;;;;;42.05;26.27;;;;;;;;;;5060396;28;20051;-49
2022/02/20 10:46:43;;;;;;;40.60;24.45;;;;;;;;;;5063081;28;20497;-48
2022/02/20 10:49:21;;;;;;;41.65;25.52;;;;;;;;;;5059637;28;20035;-52
2022/02/20 10:51:47;;;;;;;44.38;25.35;;;;;;;;;;5063508;28;20482;-51
2022/02/20 10:54:13;;;;;;;38.47;23.27;;;;;;;;;;5069547;28;20082;-47
2022/02/20 10:56:40;;;;;;;35.20;23.35;;;;;;;;;;5066961;28;20466;-47
2022/02/20 10:59:07;;;;;;;42.42;23.15;;;;;;;;;;5049204;28;20032;-52
2022/02/20 11:01:33;;;;;;;39.47;23.52;;;;;;;;;;5066830;28;20127;-49
2022/02/20 11:04:08;;;;;;;39.58;24.23;;;;;;;;;;5067677;28;20020;-49
2022/02/20 11:06:34;;;;;;;34.92;22.10;;;;;;;;;;5065363;28;20518;-52
2022/02/20 11:09:04;;;;;;;34.22;22.00;;;;;;;;;;5055977;28;20063;-52
2022/02/20 11:11:37;;;;;;;37.20;21.88;;;;;;;;;;5066363;28;20085;-49
2022/02/20 11:14:11;;;;;;;33.97;22.05;;;;;;;;;;5067565;28;20036;-48
2022/02/20 11:16:45;;;;;;;35.20;21.27;;;;;;;;;;5069146;28;20899;-51
2022/02/20 11:19:13;;;;;;;31.83;20.63;;;;;;;;;;5069096;28;20678;-49
2022/02/20 11:21:42;;;;;;;37.50;21.27;;;;;;;;;;5068161;28;20098;-52
2022/02/20 11:24:10;;;;;;;30.27;20.80;;;;;;;;;;5076033;28;20039;-50
2022/02/20 11:26:41;;;;;;;29.85;18.77;;;;;;;;;;5070742;28;20033;-49
2022/02/20 11:29:07;;;;;;;34.38;19.13;;;;;;;;;;5060490;28;20109;-48
2022/02/20 11:31:33;;;;;;;29.42;19.67;;;;;;;;;;5057839;28;20052;-51
2022/02/20 11:34:03;;;;;;;29.83;18.17;;;;;;;;;;5069327;28;20128;-48
2022/02/20 11:36:32;;;;;;;31.30;17.80;;;;;;;;;;5068518;28;20052;-48
2022/02/20 11:39:04;;;;;;;31.42;18.67;;;;;;;;;;5068603;28;20544;-46
2022/02/20 11:41:30;;;;;;;30.58;17.48;;;;;;;;;;5065140;28;20841;-50
2022/02/20 11:44:10;;;;;;;28.20;16.92;;;;;;;;;;5067138;28;20112;-50
2022/02/20 11:46:45;;;;;;;27.25;13.75;;;;;;;;;;5064846;28;20162;-49
2022/02/20 11:49:17;;;;;;;26.00;14.05;;;;;;;;;;5065282;28;20112;-48
2022/02/20 11:52:03;;;;;;;28.50;14.02;;;;;;;;;;5066626;28;20020;-50
2022/02/20 11:54:30;;;;;;;26.33;14.30;;;;;;;;;;5057420;28;20045;-50
2022/02/20 11:57:28;;;;;;;25.65;13.73;;;;;;;;;;5061260;28;20032;-48
2022/02/20 12:00:03;;;;;;;25.35;15.00;;;;;;;;;;5067157;28;20041;-50
2022/02/20 12:02:30;;;;;;;27.80;13.02;;;;;;;;;;5069189;28;20036;-54
2022/02/20 12:04:56;;;;;;;31.33;13.93;;;;;;;;;;5069143;28;20025;-45
2022/02/20 12:07:39;;;;;;;28.08;11.90;;;;;;;;;;5064140;28;20165;-51
2022/02/20 12:10:23;;;;;;;32.47;13.05;;;;;;;;;;5068911;28;20042;-51
2022/02/20 12:13:15;;;;;;;30.48;13.23;;;;;;;;;;5059446;28;20040;-50
2022/02/20 12:15:42;;;;;;;25.70;11.73;;;;;;;;;;5068725;28;20121;-48
2022/02/20 12:18:11;;;;;;;22.60;12.65;;;;;;;;;;5068659;28;20059;-48
2022/02/20 12:20:55;;;;;;;27.70;11.68;;;;;;;;;;5066742;28;20153;-49
2022/02/20 12:23:31;;;;;;;25.50;11.48;;;;;;;;;;5066456;28;20089;-52
2022/02/20 12:26:01;;;;;;;28.30;11.52;;;;;;;;;;5067391;28;20040;-53
2022/02/20 12:28:41;;;;;;;17.13;11.00;;;;;;;;;;5066868;28;20025;-51
2022/02/20 12:31:13;;;;;;;30.17;10.95;;;;;;;;;;5072635;28;20134;-48
2022/02/20 12:33:42;;;;;;;26.77;11.93;;;;;;;;;;5081787;28;20131;-49
2022/02/20 12:36:08;;;;;;;19.60;10.27;;;;;;;;;;5071896;28;20499;-49
2022/02/20 12:38:34;;;;;;;24.80;10.75;;;;;;;;;;5072058;28;20056;-50
2022/02/20 12:41:00;;;;;;;22.23;10.40;;;;;;;;;;5069263;28;20060;-52
2022/02/20 12:43:32;;;;;;;20.33;9.57;;;;;;;;;;5056811;28;20059;-51
2022/02/20 12:46:00;;;;;;;20.30;10.70;;;;;;;;;;5061412;28;20020;-57
2022/02/20 12:48:27;;;;;;;29.65;10.40;;;;;;;;;;5082385;28;20029;-60
2022/02/20 12:50:53;;;;;;;20.45;8.88;;;;;;;;;;5072284;28;20120;-60
2022/02/20 12:53:20;;;;;;;23.70;8.82;;;;;;;;;;5071804;28;20473;-58
2022/02/20 12:55:46;;;;;;;23.15;8.98;;;;;;;;;;5069306;28;20051;-51
2022/02/20 12:58:13;;;;;;;18.77;7.88;;;;;;;;;;5050270;28;20045;-48
2022/02/20 13:00:41;;;;;;;28.58;8.63;;;;;;;;;;5065438;28;20025;-49
2022/02/20 13:03:17;;;;;;;16.75;8.05;;;;;;;;;;5070204;28;20097;-49
2022/02/20 13:05:48;;;;;;;27.00;8.55;;;;;;;;;;5070144;28;20402;-48
2022/02/20 13:08:15;;;;;;;17.38;7.57;;;;;;;;;;5071267;28;20032;-52
2022/02/20 13:10:42;;;;;;;23.55;8.77;;;;;;;;;;5070707;28;20031;-48
2022/02/20 13:13:14;;;;;;;20.20;8.05;;;;;;;;;;5071159;28;20123;-49
2022/02/20 13:15:44;;;;;;;21.08;9.00;;;;;;;;;;5063530;28;20040;-52
2022/02/20 13:18:13;;;;;;;24.25;8.30;;;;;;;;;;5070704;28;20029;-50
2022/02/20 13:20:39;;;;;;;21.55;6.78;;;;;;;;;;5071133;28;20433;-53
2022/02/20 13:23:16;;;;;;;16.50;6.55;;;;;;;;;;5071239;28;20025;-49
2022/02/20 13:25:43;;;;;;;20.02;7.95;;;;;;;;;;5067451;28;20021;-49
2022/02/20 13:28:14;;;;;;;17.15;7.32;;;;;;;;;;5067241;28;20510;-48
2022/02/20 13:30:40;;;;;;;16.10;7.78;;;;;;;;;;5071580;28;20157;-51
2022/02/20 13:36:18;;;;;;;21.50;7.32;;;;;;;;;;5086336;28;20401;-51
2022/02/20 13:38:46;;;;;;;18.73;7.47;;;;;;;;;;5087019;28;20070;-48
2022/02/20 13:41:14;;;;;;;16.35;7.85;;;;;;;;;;5089183;28;20032;-53
2022/02/20 13:43:45;;;;;;;22.50;7.18;;;;;;;;;;5086067;28;20034;-47
2022/02/20 13:46:12;;;;;;;21.63;7.68;;;;;;;;;;5086617;28;20028;-48
2022/02/20 13:48:43;;;;;;;19.25;7.53;;;;;;;;;;5082510;28;20024;-48
2022/02/20 13:51:09;;;;;;;18.13;7.25;;;;;;;;;;5075141;28;20486;-50
2022/02/20 13:53:44;;;;;;;20.30;6.55;;;;;;;;;;5084145;28;20070;-49
2022/02/20 13:56:12;;;;;;;17.05;7.00;;;;;;;;;;5085400;28;20185;-47
2022/02/20 13:58:40;;;;;;;17.35;7.32;;;;;;;;;;5086212;28;20486;-54
2022/02/20 14:01:07;;;;;;;16.20;7.70;;;;;;;;;;5084060;28;20111;-50
2022/02/20 14:03:40;;;;;;;19.38;6.50;;;;;;;;;;5082686;28;20398;-52
2022/02/20 14:06:06;;;;;;;19.65;6.85;;;;;;;;;;5068914;28;20055;-48
2022/02/20 14:08:39;;;;;;;16.67;7.07;;;;;;;;;;5083215;28;20020;-51
2022/02/20 14:11:13;;;;;;;17.98;6.18;;;;;;;;;;5085678;28;20123;-48
2022/02/20 14:13:40;;;;;;;12.18;5.47;;;;;;;;;;5084189;28;20103;-50
2022/02/20 14:16:08;;;;;;;14.88;6.03;;;;;;;;;;5082993;28;20044;-52
2022/02/20 14:18:40;;;;;;;17.90;6.60;;;;;;;;;;5082989;28;20111;-51
2022/02/20 14:21:13;;;;;;;14.15;5.10;;;;;;;;;;5082938;28;20048;-51
2022/02/20 14:23:43;;;;;;;14.82;5.95;;;;;;;;;;5083066;28;20028;-49
2022/02/20 14:26:11;;;;;;;12.90;6.07;;;;;;;;;;5083003;28;20611;-49
2022/02/20 14:28:39;;;;;;;14.38;6.28;;;;;;;;;;5083481;28;20033;-49
2022/02/20 14:31:09;;;;;;;13.18;5.63;;;;;;;;;;5085544;28;20120;-51